Time,TemperatureF,DewpointF,PressureIn,WindDirection,WindDirectionDegrees,WindSpeedMPH,WindSpeedGustMPH,Humidity,HourlyPrecipIn,Conditions,Clouds,dailyrainin,SoftwareType,DateUTC
2013-03-13 00:02:00,36.0,21.0,-100.00,WNW,301,4.0,7.0,52,-99.99,,,-99.99,,2013-03-13 06:02:00,
2013-03-13 00:12:00,36.0,21.0,-100.00,NNW,328,4.0,8.0,53,-99.99,,,-99.99,,2013-03-13 06:12:00,
2013-03-13 00:22:00,36.0,21.0,-100.00,NNW,328,4.0,8.0,53,-99.99,,,-99.99,,2013-03-13 06:22:00,
2013-03-13 00:32:00,36.0,21.0,-100.00,NNW,328,4.0,8.0,53,-99.99,,,-99.99,,2013-03-13 06:32:00,
2013-03-13 00:42:00,36.0,23.0,-100.00,West,274,4.0,9.0,56,-99.99,,,-99.99,,2013-03-13 06:42:00,
2013-03-13 00:52:00,36.0,23.0,-100.00,West,274,4.0,9.0,56,-99.99,,,-99.99,,2013-03-13 06:52:00,
2013-03-13 01:02:00,36.0,23.0,-100.00,West,274,4.0,9.0,56,-99.99,,,-99.99,,2013-03-13 07:02:00,
2013-03-13 01:12:00,37.0,23.0,-100.00,NE,38,1.0,4.0,56,-99.99,,,-99.99,,2013-03-13 07:12:00,
2013-03-13 01:22:00,37.0,23.0,-100.00,NE,38,1.0,4.0,56,-99.99,,,-99.99,,2013-03-13 07:22:00,
2013-03-13 01:32:00,37.0,23.0,-100.00,NE,38,1.0,4.0,56,-99.99,,,-99.99,,2013-03-13 07:32:00,
2013-03-13 01:42:00,36.0,23.0,-100.00,NW,320,2.0,4.0,57,-99.99,,,-99.99,,2013-03-13 07:42:00,
2013-03-13 01:52:00,36.0,23.0,-100.00,NW,320,2.0,4.0,57,-99.99,,,-99.99,,2013-03-13 07:52:00,
2013-03-13 02:03:00,36.0,23.0,-100.00,North,7,2.0,5.0,58,-99.99,,,-99.99,,2013-03-13 08:03:00,
2013-03-13 02:12:00,35.0,23.0,-100.00,NNE,14,1.0,4.0,60,-99.99,,,-99.99,,2013-03-13 08:12:00,
2013-03-13 02:22:00,35.0,23.0,-100.00,NNE,14,1.0,4.0,60,-99.99,,,-99.99,,2013-03-13 08:22:00,
2013-03-13 02:32:00,35.0,23.0,-100.00,NNE,14,1.0,4.0,60,-99.99,,,-99.99,,2013-03-13 08:32:00,
2013-03-13 02:42:00,35.0,24.0,-100.00,South,178,2.0,6.0,64,-99.99,,,-99.99,,2013-03-13 08:42:00,
2013-03-13 02:53:00,35.0,24.0,-100.00,South,178,2.0,6.0,64,-99.99,,,-99.99,,2013-03-13 08:53:00,
2013-03-13 03:02:00,34.0,24.0,-100.00,SSE,163,3.0,4.0,65,-99.99,,,-99.99,,2013-03-13 09:02:00,
2013-03-13 03:12:00,35.0,24.0,-100.00,SSE,149,3.0,5.0,65,-99.99,,,-99.99,,2013-03-13 09:12:00,
2013-03-13 03:22:00,35.0,24.0,-100.00,SSE,149,3.0,5.0,65,-99.99,,,-99.99,,2013-03-13 09:22:00,
2013-03-13 03:32:00,35.0,24.0,-100.00,SSE,149,3.0,5.0,65,-99.99,,,-99.99,,2013-03-13 09:32:00,
2013-03-13 03:42:00,35.0,25.0,-100.00,South,190,2.0,4.0,64,-99.99,,,-99.99,,2013-03-13 09:42:00,
2013-03-13 03:52:00,35.0,25.0,-100.00,South,190,2.0,4.0,64,-99.99,,,-99.99,,2013-03-13 09:52:00,
2013-03-13 04:01:00,35.0,25.0,-100.00,SSE,168,2.0,3.0,65,-99.99,,,-99.99,,2013-03-13 10:01:00,
2013-03-13 04:11:00,35.0,25.0,-100.00,South,174,3.0,4.0,66,-99.99,,,-99.99,,2013-03-13 10:11:00,
2013-03-13 04:22:00,35.0,25.0,-100.00,South,174,3.0,4.0,66,-99.99,,,-99.99,,2013-03-13 10:22:00,
2013-03-13 04:32:00,35.0,25.0,-100.00,South,174,3.0,4.0,66,-99.99,,,-99.99,,2013-03-13 10:32:00,
2013-03-13 04:42:00,35.0,25.0,-100.00,ESE,123,1.0,3.0,67,-99.99,,,-99.99,,2013-03-13 10:42:00,
2013-03-13 04:52:00,35.0,25.0,-100.00,ESE,123,1.0,3.0,67,-99.99,,,-99.99,,2013-03-13 10:52:00,
2013-03-13 05:02:00,36.0,25.0,-100.00,South,190,3.0,4.0,64,-99.99,,,-99.99,,2013-03-13 11:02:00,
2013-03-13 05:12:00,37.0,25.0,-100.00,WSW,241,3.0,6.0,63,-99.99,,,-99.99,,2013-03-13 11:12:00,
2013-03-13 05:22:00,37.0,25.0,-100.00,WSW,241,3.0,6.0,63,-99.99,,,-99.99,,2013-03-13 11:22:00,
2013-03-13 05:32:00,37.0,25.0,-100.00,WSW,241,3.0,6.0,63,-99.99,,,-99.99,,2013-03-13 11:32:00,
2013-03-13 05:42:00,37.0,25.0,-100.00,NW,308,1.0,2.0,62,-99.99,,,-99.99,,2013-03-13 11:42:00,
2013-03-13 05:52:00,37.0,25.0,-100.00,NW,308,1.0,2.0,62,-99.99,,,-99.99,,2013-03-13 11:52:00,
2013-03-13 06:02:00,36.0,25.0,-100.00,NW,305,1.0,2.0,63,-99.99,,,-99.99,,2013-03-13 12:02:00,
2013-03-13 06:12:00,37.0,25.0,-100.00,SW,223,1.0,3.0,62,-99.99,,,-99.99,,2013-03-13 12:12:00,
2013-03-13 06:22:00,37.0,25.0,-100.00,SW,223,1.0,3.0,62,-99.99,,,-99.99,,2013-03-13 12:22:00,
2013-03-13 06:32:00,37.0,25.0,-100.00,SW,223,1.0,3.0,62,-99.99,,,-99.99,,2013-03-13 12:32:00,
2013-03-13 06:42:00,37.0,25.0,-100.00,South,187,0.0,2.0,61,-99.99,,,-99.99,,2013-03-13 12:42:00,
2013-03-13 06:53:00,37.0,25.0,-100.00,South,187,0.0,2.0,61,-99.99,,,-99.99,,2013-03-13 12:53:00,
2013-03-13 07:02:00,37.0,25.0,-100.00,NNW,340,0.0,2.0,62,-99.99,,,-99.99,,2013-03-13 13:02:00,
2013-03-13 07:11:00,37.0,25.0,-100.00,SSW,203,1.0,3.0,62,-99.99,,,-99.99,,2013-03-13 13:11:00,
2013-03-13 07:22:00,37.0,25.0,-100.00,SSW,203,1.0,3.0,62,-99.99,,,-99.99,,2013-03-13 13:22:00,
2013-03-13 07:32:00,37.0,25.0,-100.00,SSW,203,1.0,3.0,62,-99.99,,,-99.99,,2013-03-13 13:32:00,
2013-03-13 07:42:00,37.0,25.0,-100.00,SW,223,0.0,2.0,63,-99.99,,,-99.99,,2013-03-13 13:42:00,
2013-03-13 07:52:00,37.0,25.0,-100.00,SW,223,0.0,2.0,63,-99.99,,,-99.99,,2013-03-13 13:52:00,
2013-03-13 08:02:00,36.0,25.0,-100.00,ESE,112,1.0,3.0,63,-99.99,,,-99.99,,2013-03-13 14:02:00,
2013-03-13 08:11:00,36.0,25.0,-100.00,WSW,252,1.0,2.0,64,-99.99,,,-99.99,,2013-03-13 14:11:00,
2013-03-13 08:21:00,36.0,25.0,-100.00,WSW,252,1.0,2.0,64,-99.99,,,-99.99,,2013-03-13 14:21:00,
2013-03-13 08:33:00,36.0,25.0,-100.00,WSW,252,1.0,2.0,64,-99.99,,,-99.99,,2013-03-13 14:33:00,
2013-03-13 08:42:00,37.0,25.0,-100.00,West,259,1.0,3.0,59,-99.99,,,-99.99,,2013-03-13 14:42:00,
2013-03-13 08:52:00,37.0,25.0,-100.00,West,259,1.0,3.0,59,-99.99,,,-99.99,,2013-03-13 14:52:00,
2013-03-13 09:02:00,38.0,25.0,-100.00,WNW,295,0.0,3.0,58,-99.99,,,-99.99,,2013-03-13 15:02:00,
2013-03-13 09:11:00,38.0,25.0,-100.00,South,173,0.0,2.0,57,-99.99,,,-99.99,,2013-03-13 15:11:00,
2013-03-13 09:22:00,38.0,25.0,-100.00,South,173,0.0,2.0,57,-99.99,,,-99.99,,2013-03-13 15:22:00,
2013-03-13 09:32:00,38.0,25.0,-100.00,South,173,0.0,2.0,57,-99.99,,,-99.99,,2013-03-13 15:32:00,
2013-03-13 09:42:00,39.0,25.0,-100.00,North,7,0.0,1.0,54,-99.99,,,-99.99,,2013-03-13 15:42:00,
2013-03-13 09:52:00,39.0,25.0,-100.00,North,7,0.0,1.0,54,-99.99,,,-99.99,,2013-03-13 15:52:00,
2013-03-13 10:02:00,40.0,25.0,-100.00,North,6,0.0,1.0,54,-99.99,,,-99.99,,2013-03-13 16:02:00,
2013-03-13 10:12:00,40.0,25.0,-100.00,WNW,303,1.0,4.0,54,-99.99,,,-99.99,,2013-03-13 16:12:00,
2013-03-13 10:22:00,40.0,25.0,-100.00,WNW,303,1.0,4.0,54,-99.99,,,-99.99,,2013-03-13 16:22:00,
2013-03-13 10:32:00,40.0,25.0,-100.00,WNW,303,1.0,4.0,54,-99.99,,,-99.99,,2013-03-13 16:32:00,
2013-03-13 10:42:00,41.0,24.0,-100.00,NNW,332,1.0,2.0,51,-99.99,,,-99.99,,2013-03-13 16:42:00,
2013-03-13 10:52:00,41.0,24.0,-100.00,NNW,332,1.0,2.0,51,-99.99,,,-99.99,,2013-03-13 16:52:00,
2013-03-13 11:02:00,41.0,25.0,-100.00,NW,318,1.0,3.0,52,-99.99,,,-99.99,,2013-03-13 17:02:00,
2013-03-13 11:11:00,41.0,25.0,-100.00,North,8,1.0,4.0,51,-99.99,,,-99.99,,2013-03-13 17:11:00,
2013-03-13 11:22:00,41.0,25.0,-100.00,North,8,1.0,4.0,51,-99.99,,,-99.99,,2013-03-13 17:22:00,
2013-03-13 11:32:00,41.0,25.0,-100.00,North,8,1.0,4.0,51,-99.99,,,-99.99,,2013-03-13 17:32:00,
2013-03-13 11:42:00,41.0,27.0,-100.00,NNW,345,1.0,3.0,55,-99.99,,,-99.99,,2013-03-13 17:42:00,
2013-03-13 11:53:00,41.0,27.0,-100.00,NNW,345,1.0,3.0,55,-99.99,,,-99.99,,2013-03-13 17:53:00,
2013-03-13 12:02:00,40.0,27.0,-100.00,North,8,1.0,2.0,57,-99.99,,,-99.99,,2013-03-13 18:02:00,
2013-03-13 12:12:00,41.0,27.0,-100.00,NE,39,2.0,4.0,56,-99.99,,,-99.99,,2013-03-13 18:12:00,
2013-03-13 12:22:00,41.0,27.0,-100.00,NE,39,2.0,4.0,56,-99.99,,,-99.99,,2013-03-13 18:22:00,
2013-03-13 12:32:00,41.0,27.0,-100.00,NE,39,2.0,4.0,56,-99.99,,,-99.99,,2013-03-13 18:32:00,
2013-03-13 12:42:00,42.0,27.0,-100.00,North,0,2.0,4.0,54,-99.99,,,-99.99,,2013-03-13 18:42:00,
2013-03-13 12:52:00,42.0,27.0,-100.00,North,0,2.0,4.0,54,-99.99,,,-99.99,,2013-03-13 18:52:00,
2013-03-13 13:02:00,43.0,27.0,-100.00,NNE,16,2.0,5.0,52,-99.99,,,-99.99,,2013-03-13 19:02:00,
2013-03-13 13:12:00,43.0,27.0,-100.00,North,357,3.0,5.0,54,-99.99,,,-99.99,,2013-03-13 19:12:00,
2013-03-13 13:22:00,43.0,27.0,-100.00,North,357,3.0,5.0,54,-99.99,,,-99.99,,2013-03-13 19:22:00,
2013-03-13 13:32:00,43.0,27.0,-100.00,North,357,3.0,5.0,54,-99.99,,,-99.99,,2013-03-13 19:32:00,
2013-03-13 13:42:00,46.0,28.0,-100.00,North,1,2.0,3.0,49,-99.99,,,-99.99,,2013-03-13 19:42:00,
2013-03-13 13:53:00,46.0,28.0,-100.00,North,1,2.0,3.0,49,-99.99,,,-99.99,,2013-03-13 19:53:00,
2013-03-13 14:02:00,50.0,28.0,-100.00,ENE,68,1.0,5.0,42,-99.99,,,-99.99,,2013-03-13 20:02:00,
2013-03-13 14:11:00,49.0,28.0,-100.00,NNE,20,3.0,5.0,43,-99.99,,,-99.99,,2013-03-13 20:11:00,
2013-03-13 14:22:00,49.0,28.0,-100.00,NNE,20,3.0,5.0,43,-99.99,,,-99.99,,2013-03-13 20:22:00,
2013-03-13 14:32:00,49.0,28.0,-100.00,NNE,20,3.0,5.0,43,-99.99,,,-99.99,,2013-03-13 20:32:00,
2013-03-13 14:41:00,50.0,27.0,-100.00,West,262,2.0,6.0,40,-99.99,,,-99.99,,2013-03-13 20:41:00,
2013-03-13 14:52:00,50.0,27.0,-100.00,West,262,2.0,6.0,40,-99.99,,,-99.99,,2013-03-13 20:52:00,
2013-03-13 15:02:00,51.0,27.0,-100.00,North,358,3.0,5.0,39,-99.99,,,-99.99,,2013-03-13 21:02:00,
2013-03-13 15:11:00,51.0,25.0,-100.00,North,9,2.0,5.0,37,-99.99,,,-99.99,,2013-03-13 21:11:00,
2013-03-13 15:22:00,51.0,25.0,-100.00,North,9,2.0,5.0,37,-99.99,,,-99.99,,2013-03-13 21:22:00,
2013-03-13 15:32:00,51.0,25.0,-100.00,North,9,2.0,5.0,37,-99.99,,,-99.99,,2013-03-13 21:32:00,
2013-03-13 15:42:00,51.0,25.0,-100.00,North,352,2.0,6.0,35,-99.99,,,-99.99,,2013-03-13 21:42:00,
2013-03-13 15:52:00,51.0,25.0,-100.00,North,352,2.0,6.0,35,-99.99,,,-99.99,,2013-03-13 21:52:00,
2013-03-13 16:02:00,50.0,24.0,-100.00,North,352,4.0,7.0,35,-99.99,,,-99.99,,2013-03-13 22:02:00,
2013-03-13 16:12:00,50.0,25.0,-100.00,North,353,5.0,10.0,37,-99.99,,,-99.99,,2013-03-13 22:12:00,
2013-03-13 16:22:00,50.0,25.0,-100.00,North,353,5.0,10.0,37,-99.99,,,-99.99,,2013-03-13 22:22:00,
2013-03-13 16:31:00,50.0,25.0,-100.00,North,353,5.0,10.0,37,-99.99,,,-99.99,,2013-03-13 22:31:00,
2013-03-13 16:42:00,48.0,25.0,-100.00,North,0,4.0,8.0,40,-99.99,,,-99.99,,2013-03-13 22:42:00,
2013-03-13 16:52:00,48.0,25.0,-100.00,North,0,4.0,8.0,40,-99.99,,,-99.99,,2013-03-13 22:52:00,
2013-03-13 17:02:00,48.0,25.0,-100.00,North,0,4.0,8.0,40,-99.99,,,-99.99,,2013-03-13 23:02:00,
2013-03-13 17:12:00,50.0,25.0,-100.00,NNW,331,2.0,3.0,37,-99.99,,,-99.99,,2013-03-13 23:12:00,
2013-03-13 17:22:00,50.0,25.0,-100.00,NNW,331,2.0,3.0,37,-99.99,,,-99.99,,2013-03-13 23:22:00,
2013-03-13 17:32:00,50.0,25.0,-100.00,NNW,331,2.0,3.0,37,-99.99,,,-99.99,,2013-03-13 23:32:00,
2013-03-13 17:42:00,52.0,24.0,-100.00,NW,309,1.0,3.0,33,-99.99,,,-99.99,,2013-03-13 23:42:00,
2013-03-13 17:52:00,52.0,24.0,-100.00,NW,309,1.0,3.0,33,-99.99,,,-99.99,,2013-03-13 23:52:00,
2013-03-13 18:02:00,50.0,23.0,-100.00,SW,217,2.0,8.0,34,-99.99,,,-99.99,,2013-03-14 00:02:00,
2013-03-13 18:12:00,47.0,23.0,-100.00,SSW,194,4.0,8.0,39,-99.99,,,-99.99,,2013-03-14 00:12:00,
2013-03-13 18:22:00,47.0,23.0,-100.00,SSW,194,4.0,8.0,39,-99.99,,,-99.99,,2013-03-14 00:22:00,
2013-03-13 18:32:00,47.0,23.0,-100.00,SSW,194,4.0,8.0,39,-99.99,,,-99.99,,2013-03-14 00:32:00,
2013-03-13 18:42:00,47.0,23.0,-100.00,SSW,203,3.0,6.0,38,-99.99,,,-99.99,,2013-03-14 00:42:00,
2013-03-13 18:52:00,47.0,23.0,-100.00,SSW,203,3.0,6.0,38,-99.99,,,-99.99,,2013-03-14 00:52:00,
2013-03-13 19:02:00,47.0,23.0,-100.00,SSW,199,4.0,6.0,39,-99.99,,,-99.99,,2013-03-14 01:02:00,
2013-03-13 19:12:00,46.0,23.0,-100.00,SSW,210,5.0,7.0,40,-99.99,,,-99.99,,2013-03-14 01:12:00,
2013-03-13 19:22:00,46.0,23.0,-100.00,SSW,210,5.0,7.0,40,-99.99,,,-99.99,,2013-03-14 01:22:00,
2013-03-13 19:32:00,46.0,23.0,-100.00,SSW,210,5.0,7.0,40,-99.99,,,-99.99,,2013-03-14 01:32:00,
2013-03-13 19:42:00,45.0,22.0,-100.00,SW,216,5.0,7.0,40,-99.99,,,-99.99,,2013-03-14 01:42:00,
2013-03-13 19:53:00,45.0,22.0,-100.00,SW,216,5.0,7.0,40,-99.99,,,-99.99,,2013-03-14 01:53:00,
2013-03-13 20:02:00,45.0,22.0,-100.00,SW,219,5.0,6.0,40,-99.99,,,-99.99,,2013-03-14 02:02:00,
2013-03-13 20:12:00,44.0,21.0,-100.00,SW,221,6.0,7.0,39,-99.99,,,-99.99,,2013-03-14 02:12:00,
2013-03-13 20:22:00,44.0,21.0,-100.00,SW,221,6.0,7.0,39,-99.99,,,-99.99,,2013-03-14 02:22:00,
2013-03-13 20:32:00,44.0,21.0,-100.00,SW,221,6.0,7.0,39,-99.99,,,-99.99,,2013-03-14 02:32:00,
2013-03-13 20:42:00,44.0,21.0,-100.00,SW,221,6.0,7.0,39,-99.99,,,-99.99,,2013-03-14 02:42:00,
2013-03-13 21:01:00,43.0,19.0,-100.00,SW,227,7.0,10.0,37,-99.99,,,-99.99,,2013-03-14 03:01:00,
2013-03-13 21:12:00,44.0,20.0,-100.00,SW,221,8.0,10.0,38,-99.99,,,-99.99,,2013-03-14 03:12:00,
2013-03-13 21:22:00,44.0,20.0,-100.00,SW,221,8.0,10.0,38,-99.99,,,-99.99,,2013-03-14 03:22:00,
2013-03-13 21:32:00,44.0,20.0,-100.00,SW,221,8.0,10.0,38,-99.99,,,-99.99,,2013-03-14 03:32:00,
2013-03-13 21:42:00,44.0,19.0,-100.00,SSW,211,6.0,9.0,36,-99.99,,,-99.99,,2013-03-14 03:42:00,
2013-03-13 21:52:00,44.0,19.0,-100.00,SSW,211,6.0,9.0,36,-99.99,,,-99.99,,2013-03-14 03:52:00,
2013-03-13 22:12:00,44.0,20.0,-100.00,SW,215,7.0,10.0,37,-99.99,,,-99.99,,2013-03-14 04:12:00,
2013-03-13 22:22:00,44.0,20.0,-100.00,SW,215,7.0,10.0,37,-99.99,,,-99.99,,2013-03-14 04:22:00,
2013-03-13 22:32:00,44.0,20.0,-100.00,SW,215,7.0,10.0,37,-99.99,,,-99.99,,2013-03-14 04:32:00,
2013-03-13 22:42:00,44.0,19.0,-100.00,SW,224,8.0,10.0,35,-99.99,,,-99.99,,2013-03-14 04:42:00,
2013-03-13 22:52:00,44.0,19.0,-100.00,SW,224,8.0,10.0,35,-99.99,,,-99.99,,2013-03-14 04:52:00,
2013-03-13 23:02:00,44.0,18.0,-100.00,SW,220,7.0,10.0,35,-99.99,,,-99.99,,2013-03-14 05:02:00,
2013-03-13 23:12:00,44.0,18.0,-100.00,SSW,213,6.0,9.0,34,-99.99,,,-99.99,,2013-03-14 05:12:00,
2013-03-13 23:22:00,44.0,18.0,-100.00,SSW,213,6.0,9.0,34,-99.99,,,-99.99,,2013-03-14 05:22:00,
2013-03-13 23:32:00,44.0,18.0,-100.00,SSW,213,6.0,9.0,34,-99.99,,,-99.99,,2013-03-14 05:32:00,
2013-03-13 23:42:00,43.0,18.0,-100.00,SSW,202,7.0,11.0,36,-99.99,,,-99.99,,2013-03-14 05:42:00,
2013-03-13 23:53:00,43.0,18.0,-100.00,SSW,202,7.0,11.0,36,-99.99,,,-99.99,,2013-03-14 05:53:00,